• Join FlightAware (Why Join?)
  • Login
  • US Flag 
02:56PM EDT


 

Airport Tracker/Info


-or-


 

Live Flight TrackerFlight Track Log ✈ N9706B ✈ 27-Jul-2013 ✈ KSHD - KTZR

Flight Track Log - Related Links

Times and Time Zones

All times are in EDT time to prevent confusion due to time zone crossing. See the N9706B flight status page for this flight to view local times or setup timezone preferences in your user account.

Time Position Orientation Groundspeed Altitude Reporting Facility
EDT Latitude Longitude Course Direction KTS MPH feet Rate Location/Type
09:55AM 38.3667 -79.1483 307° West 120 138 5,800  Level Washington Center
09:56AM 38.3869 -79.1703 320° Northwest 86 99 6,000 120 Climbing Washington Center
09:57AM 38.4047 -79.2003 307° West 97 112 6,100 120 Climbing Washington Center
09:58AM 38.4225 -79.2358 303° West 108 124 6,300 300 Climbing Washington Center
09:59AM 38.4383 -79.2631 307° West 108 124 6,700 240 Climbing Washington Center
10:00AM 38.3457 -79.0984 307° West  Level FlightAware Approximate
10:00AM 38.4478 -79.2900 294° West 103 119 6,900  Level Washington Center
10:01AM 38.4575 -79.3197 293° West 97 112 7,000  Climbing Washington Center
10:02AM 38.4728 -79.3603 296° West 103 119 7,000  Level Washington Center
10:03AM 38.4881 -79.4033 294° West 120 138 7,000  Level Washington Center
10:04AM 38.5056 -79.4442 299° West 125 144 7,000  Level Washington Center
10:05AM 38.5211 -79.4819 298° West 130 150 7,000 -60 Level Washington Center
10:06AM 38.5322 -79.5225 289° West 130 150 6,900  Descending Washington Center
10:07AM 38.5481 -79.5525 304° West 118 136 7,000  Climbing Washington Center
10:08AM 38.5678 -79.5828 310° West 113 130 7,000  Level Washington Center
10:09AM 38.5789 -79.6233 289° West 113 130 7,000  Level Washington Center
10:11AM 38.6103 -79.6961 299° West 113 130 7,000  Level Indianapolis Center
10:12AM 38.6231 -79.7344 293° West 116 133 7,000  Level Indianapolis Center
10:13AM 38.6358 -79.7703 295° West 111 128 7,100  Climbing Indianapolis Center
10:14AM 38.6486 -79.8061 295° West 110 127 7,100  Level Indianapolis Center
10:15AM 38.6614 -79.8428 294° West 112 129 7,100  Level Indianapolis Center
10:16AM 38.6778 -79.8772 301° West 113 130 7,100 -60 Level Indianapolis Center
10:17AM 38.6953 -79.9108 304° West 114 131 7,000  Descending Indianapolis Center
10:18AM 38.6997 -79.9517 278° West 101 116 7,100  Climbing Indianapolis Center
10:19AM 38.7117 -79.9833 296° West 98 113 7,100  Level Indianapolis Center
10:20AM 38.7283 -80.0153 304° West 105 121 7,100  Level Indianapolis Center
10:21AM 38.7461 -80.0478 305° West 111 128 7,100  Level Indianapolis Center
10:22AM 38.7625 -80.0836 300° West 114 131 7,100 -360 Level Indianapolis Center
10:23AM 38.7767 -80.1206 296° West 115 132 6,400 -540 Descending Indianapolis Center
10:24AM 38.7950 -80.1608 300° West 126 145 6,100 -180 Descending Indianapolis Center
10:26AM 38.8081 -80.1989 294° West 121 139 6,100  Level Indianapolis Center
10:27AM 38.8233 -80.2411 295° West 111 128 6,100  Level Indianapolis Center
10:28AM 38.8386 -80.2781 298° West 115 132 6,100  Level Indianapolis Center
10:29AM 38.8528 -80.3144 297° West 116 133 6,100  Level Indianapolis Center
10:30AM 38.8664 -80.3514 295° West 115 132 6,100  Level Indianapolis Center
10:31AM 38.8778 -80.3889 291° West 113 130 6,100  Level Indianapolis Center
10:32AM 38.8914 -80.4267 295° West 115 132 6,200  Climbing Indianapolis Center
10:33AM 38.9053 -80.4622 297° West 114 131 6,100 -60 Descending Indianapolis Center
10:34AM 38.9136 -80.4989 286° West 109 125 6,100  Level Indianapolis Center
10:35AM 38.9364 -80.5403 305° West 115 132 6,200  Climbing Indianapolis Center
10:36AM 38.9539 -80.5758 302° West 118 136 6,100 -60 Descending Indianapolis Center
10:37AM 38.9681 -80.6108 298° West 116 133 6,100  Level Indianapolis Center
10:38AM 38.9831 -80.6419 302° West 110 127 6,100  Level Indianapolis Center
10:39AM 38.9972 -80.6753 299° West 107 123 6,200  Climbing Indianapolis Center
10:40AM 39.0092 -80.7089 295° West 106 122 6,200 -60 Level Indianapolis Center
10:41AM 39.0222 -80.7442 295° West 107 123 6,100  Descending Indianapolis Center
10:42AM 39.0344 -80.7806 293° West 109 125 6,200  Climbing Indianapolis Center
10:43AM 39.0519 -80.8239 297° West 111 128 6,100 -60 Descending Indianapolis Center
10:44AM 39.0667 -80.8606 297° West 113 130 6,100  Level Indianapolis Center
10:45AM 39.0806 -80.8978 296° West 114 131 6,100  Level Indianapolis Center
10:46AM 39.0989 -80.9325 304° West 115 132 6,100  Level Indianapolis Center
10:47AM 39.1111 -80.9700 293° West 115 132 6,200  Climbing Indianapolis Center
10:48AM 39.1194 -81.0086 286° West 114 131 6,100 -60 Descending Indianapolis Center
10:49AM 39.1275 -81.0458 286° West 112 129 6,100  Level Indianapolis Center
10:50AM 39.1414 -81.0889 293° West 109 125 6,100  Level Indianapolis Center
10:51AM 39.1578 -81.1236 301° West 110 127 6,200  Climbing Indianapolis Center
10:52AM 39.1778 -81.1586 306° West 116 133 6,100  Descending Indianapolis Center
10:53AM 39.1942 -81.1958 300° West 119 137 6,200  Climbing Indianapolis Center
10:54AM 39.2086 -81.2325 297° West 118 136 6,100 -60 Descending Indianapolis Center
10:55AM 39.2189 -81.2714 289° West 116 133 6,100  Level Indianapolis Center
10:56AM 39.2358 -81.3083 301° West 118 136 6,100 60 Level Indianapolis Center
10:57AM 39.2469 -81.3525 288° West 112 129 6,300  Climbing Indianapolis Center
10:58AM 39.2653 -81.3875 304° West 117 135 6,200 -120 Descending Indianapolis Center
10:59AM 39.2792 -81.4289 293° West 123 142 6,100 -60 Descending Indianapolis Center
11:00AM 39.2958 -81.4639 302° West 119 137 6,100  Level Indianapolis Center
11:02AM 39.3086 -81.5000 295° West 115 132 6,200  Climbing Indianapolis Center
11:03AM 39.3136 -81.5394 279° West 112 129 6,100 -120 Descending Indianapolis Center
11:04AM 39.3289 -81.5781 297° West 118 136 6,000  Descending Indianapolis Center
11:05AM 39.3472 -81.6197 300° West 114 131 6,100  Climbing Indianapolis Center
11:06AM 39.3625 -81.6600 296° West 120 138 6,000 -60 Descending Indianapolis Center
11:07AM 39.3800 -81.6961 302° West 121 139 6,000 60 Level Indianapolis Center
11:08AM 39.3953 -81.7339 298° West 119 137 6,200  Climbing Indianapolis Center
11:09AM 39.4056 -81.7706 290° West 110 127 6,100 -60 Descending Indianapolis Center
11:10AM 39.4175 -81.8114 291° West 119 137 6,100  Level Indianapolis Center
11:11AM 39.4267 -81.8500 287° West 115 132 6,100  Level Indianapolis Center
11:12AM 39.4442 -81.8931 298° West 113 130 6,100  Level Indianapolis Center
11:13AM 39.4581 -81.9308 295° West 114 131 6,100  Level Indianapolis Center
11:14AM 39.4708 -81.9661 295° West 112 129 6,200  Climbing Indianapolis Center
11:15AM 39.4867 -82.0050 298° West 118 136 6,200 -60 Level Indianapolis Center
11:16AM 39.5025 -82.0408 300° West 116 133 6,100 -60 Descending Indianapolis Center
11:17AM 39.5214 -82.0775 304° West 120 138 6,100  Level Indianapolis Center
11:18AM 39.5333 -82.1117 294° West 114 131 6,100  Level Indianapolis Center
11:19AM 39.5450 -82.1458 294° West 111 128 6,100 -60 Level Indianapolis Center
11:20AM 39.5606 -82.1833 298° West 118 136 6,000 -60 Descending Indianapolis Center
11:21AM 39.5722 -82.2175 294° West 118 136 6,000  Level Indianapolis Center
11:21AM 39.5747 -82.2347 281° West 114 131 6,000  Level Indianapolis Center
11:22AM 39.5858 -82.2550 305° West 121 139 6,000  Level Indianapolis Center
11:22AM 39.5931 -82.2711 300° West 119 137 6,000  Level Indianapolis Center
11:23AM 39.6086 -82.3064 300° West 114 131 6,000  Level Indianapolis Center
11:24AM 39.6058 -82.3469 265° West 110 127 6,000  Level Indianapolis Center
11:25AM 39.6089 -82.3906 275° West 106 122 6,100  Climbing Indianapolis Center
11:26AM 39.6125 -82.4286 277° West 106 122 6,000 -60 Descending Indianapolis Center
11:27AM 39.6167 -82.4672 278° West 108 124 6,000 -240 Level Indianapolis Center
11:28AM 39.6203 -82.5092 276° West 112 129 5,600 -540 Descending Indianapolis Center
11:29AM 39.6225 -82.5519 274° West 118 136 5,000 -780 Descending Indianapolis Center
11:30AM 39.6250 -82.5975 274° West 123 142 4,100 -540 Descending Indianapolis Center
11:31AM 39.6267 -82.6414 273° West 122 140 3,900 -60 Descending Indianapolis Center
11:32AM 39.6283 -82.6819 273° West 114 131 4,000  Climbing Indianapolis Center
11:33AM 39.6317 -82.7203 276° West 108 124 4,000  Level Indianapolis Center
11:34AM 39.6350 -82.7603 276° West 110 127 4,000  Level Indianapolis Center
11:35AM 39.6417 -82.8050 281° West 107 123 4,100 -60 Climbing Indianapolis Center
11:36AM 39.6431 -82.8442 273° West 106 122 3,900  Descending Indianapolis Center
11:38AM 39.6469 -82.8825 278° West 108 124 4,100 60 Climbing Indianapolis Center
11:39AM 39.6519 -82.9189 280° West 103 119 4,100 -60 Level Indianapolis Center
11:40AM 39.6608 -82.9561 287° West 106 122 4,000 -60 Descending Indianapolis Center
11:41AM 39.6686 -82.9942 285° West 108 124 4,000  Level Indianapolis Center
11:42AM 39.6764 -83.0333 284° West 110 127 4,000  Level Indianapolis Center
11:43AM 39.6814 -83.0708 280° West 106 122 4,100  Climbing Indianapolis Center
11:44AM 39.6842 -83.1072 276° West 102 117 4,100 -60 Level Indianapolis Center
11:45AM 39.6964 -83.1456 293° West 108 124 4,000 -60 Descending Indianapolis Center
11:46AM 39.7056 -83.1847 287° West 111 128 4,000  Level Indianapolis Center
11:47AM 39.7172 -83.2225 292° West 111 128 4,000  Level Indianapolis Center
11:48AM 39.7394 -83.2531 313° West 122 140 4,000 -540 Level Indianapolis Center
11:49AM 39.7797 -83.2461 North 153 176 2,900 -540 Descending Indianapolis Center
11:50AM 39.8083 -83.2167 38° Northeast 145 167 2,900 -240 Level Indianapolis Center
11:50AM 39.8253 -83.1978 41° Northeast 156 180 2,600 -900 Descending Indianapolis Center
11:51AM 39.8400 -83.1872 29° Northeast 141 162 2,000 -600 Descending Indianapolis Center
11:52AM 39.8706 -83.1619 32° Northeast 135 155 1,700 -480 Descending Indianapolis Center
11:53AM 39.8978 -83.1389 33° Northeast 128 147 1,100 -600 Descending Indianapolis Center
11:55AM 39.9012 -83.1369 62° Northeast  Level Estimated